Flight Track Log - Related Links

Times and Time Zones

All times are in EDT time to prevent confusion due to time zone crossing. See the SWA2975 flight status page for this flight to view local times or setup timezone preferences in your user account.

Time Position Orientation Groundspeed Altitude Reporting Facility
EDT Latitude Longitude Course Direction KTS MPH feet Rate Location/Type
Tue 11:32:00 PM 41.7750 -87.7670 240° Southwest 150 173 1,700  Level FlightAware ADS-B
Tue 11:32:32 PM 41.7660 -87.7950 247° West 175 201 2,600 1,625 Climbing FlightAware ADS-B
Tue 11:32:48 PM 41.7610 -87.8120 248° West 199 229 3,000 1,909 Climbing FlightAware ADS-B
Tue 11:33:16 PM 41.7510 -87.8460 248° West 224 258 4,000 2,615 Climbing FlightAware ADS-B
Tue 11:33:27 PM 41.7460 -87.8610 246° West 221 254 4,700 3,512 Climbing FlightAware ADS-B
Tue 11:33:57 PM 41.7560 -87.8970 290° West 224 258 6,400 3,200 Climbing FlightAware ADS-B
Tue 11:34:27 PM 41.7760 -87.9300 309° West 229 264 7,900 3,143 Climbing FlightAware ADS-B
Tue 11:34:39 PM 41.7850 -87.9430 313° West 228 262 8,600 3,429 Climbing FlightAware ADS-B
Tue 11:34:55 PM 41.7980 -87.9560 323° Northwest 229 264 9,500 2,727 Climbing FlightAware ADS-B
Tue 11:35:34 PM 41.8400 -87.9750 341° North 254 292 11,100 2,707 Climbing FlightAware ADS-B
Tue 11:36:17 PM 41.8880 -87.9940 344° North 265 305 13,200 2,750 Climbing FlightAware ADS-B
Tue 11:36:46 PM 41.9240 -87.9910 North 274 315 14,400 2,000 Climbing FlightAware ADS-B
Tue 11:37:26 PM 41.9790 -87.9880 North 312 359 15,500 2,071 Climbing FlightAware ADS-B
Tue 11:38:10 PM 42.0450 -87.9840 North 325 374 17,300 2,259 Climbing FlightAware ADS-B
Tue 11:38:51 PM 42.1090 -87.9810 North 345 397 18,700 2,025 Climbing FlightAware ADS-B
Tue 11:39:30 PM 42.1690 -87.9800 North 357 411 20,000 1,902 Climbing FlightAware ADS-B
Tue 11:40:13 PM 42.2440 -87.9780 North 377 434 21,300 1,448 Climbing FlightAware ADS-B
Tue 11:40:57 PM 42.3210 -87.9430 19° North 414 476 22,100 1,172 Climbing FlightAware ADS-B
Tue 11:41:40 PM 42.3960 -87.8960 25° Northeast 429 494 23,000 651 Climbing FlightAware ADS-B
Tue 11:42:20 PM 42.4690 -87.8520 24° Northeast 428 493 23,000 578 Level FlightAware ADS-B
Tue 11:43:03 PM 42.5470 -87.8050 24° Northeast 430 495 23,800 1,310 Climbing FlightAware ADS-B
Tue 11:43:47 PM 42.6300 -87.7550 24° Northeast 443 510 24,900 1,571 Climbing FlightAware ADS-B
Tue 11:44:27 PM 42.7050 -87.7090 24° Northeast 452 520 26,000 1,590 Climbing FlightAware ADS-B
Tue 11:45:10 PM 42.7850 -87.6580 25° Northeast 459 528 27,100 1,463 Climbing FlightAware ADS-B
Tue 11:45:49 PM 42.8380 -87.5700 51° Northeast 473 544 28,000 1,301 Climbing FlightAware ADS-B
Tue 11:46:33 PM 42.8620 -87.4440 75° East 483 556 28,900 1,200 Climbing FlightAware ADS-B
Tue 11:47:14 PM 42.8850 -87.3200 76° East 491 565 29,700 1,185 Climbing FlightAware ADS-B
Tue 11:47:54 PM 42.9060 -87.1990 77° East 497 572 30,500 907 Climbing FlightAware ADS-B
Tue 11:48:40 PM 42.9320 -87.0590 76° East 500 575 31,000 345 Climbing FlightAware ADS-B
Tue 11:49:21 PM 42.9540 -86.9360 76° East 501 577 31,000  Level FlightAware ADS-B
Tue 11:50:02 PM 42.9770 -86.8060 76° East 505 581 31,000  Level FlightAware ADS-B
Tue 11:50:42 PM 42.9980 -86.6850 77° East 506 582 31,000  Level FlightAware ADS-B
Tue 11:51:28 PM 43.0230 -86.5400 77° East 507 583 31,000  Level FlightAware ADS-B
Tue 11:52:10 PM 43.0460 -86.4090 76° East 509 586 31,000 706 Level FlightAware ADS-B
Tue 11:52:53 PM 43.0690 -86.2750 77° East 508 585 32,000 1,012 Climbing FlightAware ADS-B
Tue 11:53:33 PM 43.0900 -86.1500 77° East 508 585 32,400 1,143 Climbing FlightAware ADS-B
Tue 11:54:17 PM 43.1130 -86.0150 77° East 500 575 33,600 1,465 Climbing FlightAware ADS-B
Tue 11:54:59 PM 43.1250 -85.8820 83° East 496 571 34,500 1,024 Climbing FlightAware ADS-B
Tue 11:55:39 PM 43.1310 -85.7570 86° East 498 573 35,000 361 Climbing FlightAware ADS-B
Tue 11:56:22 PM 43.1380 -85.6210 86° East 499 574 35,000  Level FlightAware ADS-B
Tue 11:57:02 PM 43.1450 -85.4970 86° East 501 577 35,000  Level FlightAware ADS-B
Tue 11:57:46 PM 43.1520 -85.3560 86° East 507 583 35,000  Level FlightAware ADS-B
Tue 11:58:26 PM 43.1590 -85.2280 86° East 510 587 35,000  Level FlightAware ADS-B
Tue 11:59:11 PM 43.1660 -85.0810 86° East 511 588 35,000  Level FlightAware ADS-B
Tue 11:59:52 PM 43.1720 -84.9500 86° East 513 590 35,000  Level FlightAware ADS-B
Wed 12:00:14 AM 43.1740 -84.9080 86° East 512 589 35,000  Level FlightAware ADS-B
Wed 12:01:36 AM 43.1880 -84.6150 86° East 514 592 35,000  Level FlightAware ADS-B
Wed 12:02:16 AM 43.1930 -84.4850 87° East 514 592 35,000  Level FlightAware ADS-B
Wed 12:03:02 AM 43.2000 -84.3350 86° East 516 594 35,000  Level FlightAware ADS-B
Wed 12:03:42 AM 43.2050 -84.2060 87° East 516 594 35,000  Level FlightAware ADS-B
Wed 12:04:26 AM 43.2110 -84.0620 87° East 515 593 35,000  Level FlightAware ADS-B
Wed 12:05:04 AM 43.2160 -83.9360 87° East 515 593 35,000  Level FlightAware ADS-B
Wed 12:05:46 AM 43.2210 -83.8040 87° East 514 592 35,000  Level FlightAware ADS-B
Wed 12:06:28 AM 43.2260 -83.6710 87° East 512 589 35,000  Level FlightAware ADS-B
Wed 12:07:12 AM 43.2310 -83.5280 87° East 512 589 35,000  Level FlightAware ADS-B
Wed 12:07:52 AM 43.2350 -83.3980 88° East 512 589 35,000  Level FlightAware ADS-B
Wed 12:08:34 AM 43.2400 -83.2600 87° East 512 589 35,000  Level FlightAware ADS-B
Wed 12:09:18 AM 43.2440 -83.1170 88° East 513 590 35,000  Level FlightAware ADS-B
Wed 12:09:58 AM 43.2480 -82.9890 87° East 517 595 35,000  Level FlightAware ADS-B
Wed 12:10:42 AM 43.2520 -82.8450 88° East 517 595 35,000  Level FlightAware ADS-B
Wed 12:11:24 AM 43.2580 -82.7120 86° East 521 600 35,000  Level FlightAware ADS-B
Wed 12:12:06 AM 43.2770 -82.5740 79° East 521 600 35,000  Level FlightAware ADS-B
Wed 12:12:48 AM 43.2960 -82.4360 79° East 522 601 35,000  Level FlightAware ADS-B
Wed 12:13:31 AM 43.3090 -82.2940 83° East 523 602 35,000  Level FlightAware ADS-B
Wed 12:14:13 AM 43.3060 -82.1530 92° East 523 602 35,000  Level FlightAware ADS-B
Wed 12:14:55 AM 43.3030 -82.0110 92° East 525 604 35,000  Level FlightAware ADS-B
Wed 12:16:46 AM 43.2940 -81.6560 92° East 525 604 35,000  Level FlightAware ADS-B
Wed 12:17:31 AM 43.2900 -81.5070 92° East 525 604 35,000  Level FlightAware ADS-B
Wed 12:18:11 AM 43.2860 -81.3730 92° East 524 603 35,000  Level FlightAware ADS-B
Wed 12:18:56 AM 43.2820 -81.2260 92° East 520 598 35,000  Level FlightAware ADS-B
Wed 12:19:41 AM 43.2770 -81.0780 93° East 517 595 35,000  Level FlightAware ADS-B
Wed 12:20:22 AM 43.2730 -80.9470 92° East 516 594 35,000  Level FlightAware ADS-B
Wed 12:21:01 AM 43.2680 -80.8160 93° East 519 597 35,000  Level FlightAware ADS-B
Wed 12:21:46 AM 43.2630 -80.6680 93° East 521 600 35,000  Level FlightAware ADS-B
Wed 12:22:26 AM 43.2580 -80.5360 93° East 521 600 35,000  Level FlightAware ADS-B
Wed 12:23:06 AM 43.2540 -80.4040 92° East 521 600 35,000  Level FlightAware ADS-B
Wed 12:23:46 AM 43.2490 -80.2810 93° East 521 600 35,000  Level FlightAware ADS-B
Wed 12:24:31 AM 43.2430 -80.1270 93° East 519 597 35,000  Level FlightAware ADS-B
Wed 12:25:11 AM 43.2370 -79.9950 94° East 519 597 35,000  Level FlightAware ADS-B
Wed 12:25:56 AM 43.2310 -79.8470 93° East 518 596 35,000  Level FlightAware ADS-B
Wed 12:26:36 AM 43.2260 -79.7150 93° East 516 594 35,000  Level FlightAware ADS-B
Wed 12:27:21 AM 43.2190 -79.5770 94° East 513 590 35,000  Level FlightAware ADS-B
Wed 12:28:01 AM 43.2130 -79.4400 93° East 512 589 35,000  Level FlightAware ADS-B
Wed 12:28:46 AM 43.2060 -79.2970 94° East 509 586 35,000  Level FlightAware ADS-B
Wed 12:29:26 AM 43.2000 -79.1680 94° East 507 583 35,000  Level FlightAware ADS-B
Wed 12:30:06 AM 43.1940 -79.0430 94° East 504 580 35,000  Level FlightAware ADS-B
Wed 12:30:46 AM 43.1880 -78.9110 94° East 503 579 35,000  Level FlightAware ADS-B
Wed 12:31:27 AM 43.1810 -78.7860 94° East 503 579 35,000  Level FlightAware ADS-B
Wed 12:32:11 AM 43.1740 -78.6430 94° East 503 579 35,000  Level FlightAware ADS-B
Wed 12:32:51 AM 43.1670 -78.5160 94° East 505 581 35,000  Level FlightAware ADS-B
Wed 12:33:36 AM 43.1580 -78.3750 95° East 506 582 35,000  Level FlightAware ADS-B
Wed 12:34:16 AM 43.1480 -78.2470 96° East 506 582 35,000  Level FlightAware ADS-B
Wed 12:35:01 AM 43.1380 -78.1070 96° East 507 583 35,000  Level FlightAware ADS-B
Wed 12:35:41 AM 43.1290 -77.9790 95° East 507 583 35,000  Level FlightAware ADS-B
Wed 12:36:27 AM 43.1180 -77.8320 96° East 508 585 35,000  Level FlightAware ADS-B
Wed 12:37:06 AM 43.1090 -77.7060 96° East 508 585 35,000  Level FlightAware ADS-B
Wed 12:37:51 AM 43.0980 -77.5600 96° East 509 586 35,000 -141 Level FlightAware ADS-B
Wed 12:38:31 AM 43.0880 -77.4330 96° East 509 586 34,800 -635 Descending FlightAware ADS-B
Wed 12:39:16 AM 43.0770 -77.2900 96° East 502 578 34,100 -975 Descending FlightAware ADS-B
Wed 12:39:51 AM 43.0680 -77.1810 96° East 501 577 33,500 -975 Descending FlightAware ADS-B
Wed 12:40:36 AM 43.0570 -77.0410 96° East 503 579 32,800 -988 Descending FlightAware ADS-B
Wed 12:41:16 AM 43.0460 -76.9140 97° East 502 578 32,100 -988 Descending FlightAware ADS-B
Wed 12:42:01 AM 43.0350 -76.7730 96° East 496 571 31,400 -1,000 Descending FlightAware ADS-B
Wed 12:42:46 AM 43.0230 -76.6360 97° East 487 560 30,600 -1,050 Descending FlightAware ADS-B
Wed 12:43:21 AM 43.0140 -76.5310 97° East 481 554 30,000 -1,050 Descending FlightAware ADS-B
Wed 12:44:06 AM 43.0030 -76.3950 96° East 477 549 29,200 -1,059 Descending FlightAware ADS-B
Wed 12:44:46 AM 42.9920 -76.2790 97° East 468 539 28,500 -988 Descending FlightAware ADS-B
Wed 12:45:31 AM 42.9810 -76.1480 97° East 466 536 27,800 -1,000 Descending FlightAware ADS-B
Wed 12:46:16 AM 42.9690 -76.0140 97° East 465 535 27,000 -988 Descending FlightAware ADS-B
Wed 12:46:56 AM 42.9590 -75.9000 97° East 450 518 26,400 -975 Descending FlightAware ADS-B
Wed 12:47:36 AM 42.9480 -75.7890 98° East 448 516 25,700 -1,059 Descending FlightAware ADS-B
Wed 12:48:21 AM 42.9370 -75.6670 97° East 440 506 24,900 -1,129 Descending FlightAware ADS-B
Wed 12:49:01 AM 42.9270 -75.5610 97° East 431 496 24,100 -1,624 Descending FlightAware ADS-B
Wed 12:49:46 AM 42.9150 -75.4390 98° East 420 483 22,600 -2,118 Descending FlightAware ADS-B
Wed 12:50:43 AM 42.9000 -75.2730 97° East 413 475 20,500 -2,041 Descending FlightAware ADS-B
Wed 12:51:23 AM 42.8890 -75.1690 98° East 414 476 19,300 -1,880 Descending FlightAware ADS-B
Wed 12:52:06 AM 42.8790 -75.0600 97° East 409 471 17,900 -1,952 Descending FlightAware ADS-B
Wed 12:52:46 AM 42.8690 -74.9580 98° East 403 464 16,600 -1,952 Descending FlightAware ADS-B
Wed 12:53:29 AM 42.8580 -74.8520 98° East 396 456 15,200 -1,929 Descending FlightAware ADS-B
Wed 12:54:10 AM 42.8480 -74.7530 98° East 389 448 13,900 -1,395 Descending FlightAware ADS-B
Wed 12:54:55 AM 42.8380 -74.6500 98° East 384 442 13,200 -532 Descending FlightAware ADS-B
Wed 12:55:29 AM 42.8320 -74.5800 97° East 384 442 13,200  Level FlightAware ADS-B
Wed 12:56:15 AM 42.8230 -74.4860 97° East 384 442 13,200 -1,795 Level FlightAware ADS-B
Wed 12:59:33 AM 42.8830 -74.0980 78° East 296 341 5,900 -2,229 Descending FlightAware ADS-B
Wed 12:59:45 AM 42.8880 -74.0670 78° East 296 341 5,400 -2,143 Descending FlightAware ADS-B
Wed 01:00:15 AM 42.8960 -74.0160 78° East 300 345 4,400 -1,800 Descending FlightAware ADS-B
Wed 01:00:25 AM 42.8990 -73.9950 79° East 297 342 4,200 -692 Descending FlightAware ADS-B
Wed 01:01:07 AM 42.9060 -73.9210 83° East 275 316 3,800 -676 Descending FlightAware ADS-B
Wed 01:01:36 AM 42.8950 -73.8730 107° East 256 295 3,400 -889 Descending FlightAware ADS-B
Wed 01:02:01 AM 42.8860 -73.8380 109° East 239 275 3,000 -987 Descending FlightAware ADS-B
Wed 01:02:55 AM 42.8547 -73.8108 109° East 201 231 2,100 -474 Descending Boston Center
Wed 01:03:55 AM 42.8328 -73.7453 115° Southeast 201 231 2,100  Level Boston Center

Login

Don't have an account? Register now (free) for customized features, flight alerts, and more!